createdAt,value
2019-04-26T00:02:00.927Z,52.2
2019-04-26T00:04:55.960Z,52.5
2019-04-26T00:07:51.390Z,53
2019-04-26T00:10:47.139Z,53.1
2019-04-26T00:13:42.334Z,53.6
2019-04-26T00:16:37.776Z,53.4
2019-04-26T00:19:33.748Z,53.7
2019-04-26T00:22:28.690Z,53.2
2019-04-26T00:25:24.160Z,53.6
2019-04-26T00:28:19.638Z,53.8
2019-04-26T00:31:15.660Z,54.4
2019-04-26T00:34:13.680Z,54.3
2019-04-26T00:37:05.874Z,53.8
2019-04-26T00:40:01.320Z,54
2019-04-26T00:42:58.194Z,54.5
2019-04-26T00:45:52.175Z,54.6
2019-04-26T00:48:47.604Z,54.3
2019-04-26T00:51:43.028Z,54.2
2019-04-26T00:54:38.421Z,54.6
2019-04-26T00:57:33.768Z,54.9
2019-04-26T01:00:29.182Z,55.1
2019-04-26T01:03:25.518Z,55.2
2019-04-26T01:06:21.035Z,56.2
2019-04-26T01:09:17.543Z,55.7
2019-04-26T01:12:10.722Z,56.1
2019-04-26T01:15:06.068Z,56.3
2019-04-26T01:18:01.457Z,56.4
2019-04-26T01:20:56.830Z,57.2
2019-04-26T01:23:52.186Z,57.5
2019-04-26T01:26:47.594Z,57.7
2019-04-26T01:29:42.999Z,57.7
2019-04-26T01:32:38.285Z,58.2
2019-04-26T01:35:38.666Z,57.7
2019-04-26T01:38:29.167Z,58.1
2019-04-26T01:41:24.560Z,58
2019-04-26T01:44:22.777Z,57.8
2019-04-26T01:47:15.185Z,57.7
2019-04-26T01:50:10.497Z,58.1
2019-04-26T01:53:05.886Z,57.8
2019-04-26T01:56:01.262Z,57.9
2019-04-26T01:58:56.681Z,58
2019-04-26T02:01:52.059Z,58.1
2019-04-26T02:04:47.471Z,58.2
2019-04-26T02:07:42.858Z,58.1
2019-04-26T02:10:38.246Z,58.2
2019-04-26T02:13:33.670Z,58.1
2019-04-26T02:16:29.699Z,58.7
2019-04-26T02:19:25.801Z,58.8
2019-04-26T02:22:19.751Z,59.1
2019-04-26T02:25:14.995Z,59.4
2019-04-26T02:28:10.450Z,59.3
2019-04-26T02:31:05.923Z,59.2
2019-04-26T02:34:01.120Z,59.1
2019-04-26T02:36:59.459Z,59
2019-04-26T02:39:51.696Z,59.4
2019-04-26T02:42:47.109Z,59.6
2019-04-26T02:45:42.441Z,59.8
2019-04-26T02:48:38.445Z,60.1
2019-04-26T02:51:38.185Z,60.4
2019-04-26T02:54:34.648Z,60.6
2019-04-26T02:57:23.724Z,60.2
2019-04-26T03:00:19.051Z,60.1
2019-04-26T03:03:14.370Z,60.2
2019-04-26T03:06:09.546Z,63.3
2019-04-26T03:09:05.035Z,64.3
2019-04-26T03:12:00.252Z,64
2019-04-26T03:15:14.748Z,63.5
2019-04-26T03:17:50.856Z,62.3
2019-04-26T03:20:46.159Z,61.8
2019-04-26T03:23:59.705Z,62.1
2019-04-26T03:26:43.120Z,63.1
2019-04-26T03:29:39.504Z,63.9
2019-04-26T03:32:27.343Z,64.7
2019-04-26T03:35:22.606Z,65.6
2019-04-26T03:38:17.866Z,66.1
2019-04-26T03:44:08.350Z,67.6
2019-04-26T03:47:03.650Z,68.1
2019-04-26T03:49:58.888Z,68
2019-04-26T03:52:53.991Z,69
2019-04-26T03:55:49.240Z,68.9
2019-04-26T03:58:45.813Z,69
2019-04-26T04:01:44.132Z,71
2019-04-26T04:04:38.929Z,71.5
2019-04-26T04:07:51.353Z,71.5
2019-04-26T04:10:25.467Z,72.6
2019-04-26T04:13:20.704Z,70.8
2019-04-26T04:16:15.927Z,72.3
2019-04-26T04:19:11.204Z,72.2
2019-04-26T04:22:06.385Z,72.8
2019-04-26T04:25:01.613Z,73.1
2019-04-26T04:27:56.816Z,73.2
2019-04-26T04:30:52.069Z,73.8
2019-04-26T04:33:49.781Z,73.1
2019-04-26T04:36:50.760Z,73.9
2019-04-26T04:39:37.708Z,75.2
2019-04-26T04:42:32.963Z,74.6
2019-04-26T04:45:28.188Z,74.6
2019-04-26T04:48:23.470Z,74.8
2019-04-26T04:51:18.659Z,74.6
2019-04-26T04:54:13.883Z,74.9
2019-04-26T04:57:09.125Z,75.2
2019-04-26T05:00:04.366Z,75
2019-04-26T05:02:59.592Z,74.9
2019-04-26T05:06:08.180Z,75
2019-04-26T05:08:54.049Z,74
2019-04-26T05:11:46.285Z,74.3
2019-04-26T05:14:40.567Z,75.3
2019-04-26T05:17:35.805Z,75.6
2019-04-26T05:20:30.934Z,75.8
2019-04-26T05:23:26.183Z,75.5
2019-04-26T05:26:21.383Z,75.6
2019-04-26T05:29:16.581Z,75.6
2019-04-26T05:32:11.783Z,75.3
2019-04-26T05:35:06.983Z,75.8
2019-04-26T05:38:02.189Z,76
2019-04-26T05:40:58.251Z,76
2019-04-26T05:43:54.019Z,77
2019-04-26T05:46:47.844Z,75.9
2019-04-26T05:49:43.057Z,75.5
2019-04-26T05:52:38.286Z,75.3
2019-04-26T05:55:33.520Z,75.5
2019-04-26T05:58:28.772Z,75.4
2019-04-26T06:01:23.993Z,75.4
2019-04-26T06:04:19.218Z,75.7
2019-04-26T06:07:14.473Z,75.8
2019-04-26T06:10:09.593Z,75.5
2019-04-26T06:13:04.931Z,75.4
2019-04-26T06:16:00.654Z,75.2
2019-04-26T06:18:55.660Z,75.7
2019-04-26T06:21:53.879Z,75.4
2019-04-26T06:24:45.894Z,76
2019-04-26T06:27:41.126Z,75.6
2019-04-26T06:30:45.946Z,76.2
2019-04-26T06:33:31.596Z,76.3
2019-04-26T06:36:26.892Z,76.6
2019-04-26T06:39:22.112Z,76.6
2019-04-26T06:42:17.394Z,76.2
2019-04-26T06:45:12.678Z,76.4
2019-04-26T06:48:07.872Z,76.6
2019-04-26T06:51:03.242Z,76
2019-04-26T06:53:59.112Z,76.7
2019-04-26T06:56:53.702Z,75.8
2019-04-26T06:59:48.860Z,75.6
2019-04-26T07:02:44.052Z,75.2
2019-04-26T07:05:39.252Z,75.4
2019-04-26T07:08:34.466Z,75.5
2019-04-26T07:11:29.665Z,75.2
2019-04-26T07:14:24.864Z,76.5
2019-04-26T07:17:20.045Z,75.7
2019-04-26T07:20:15.243Z,75.9
2019-04-26T07:23:10.450Z,75.6
2019-04-26T07:26:06.384Z,74.6
2019-04-26T07:29:03.028Z,75.8
2019-04-26T07:31:56.091Z,74.9
2019-04-26T07:34:51.326Z,73.8
2019-04-26T07:37:46.567Z,74.4
2019-04-26T07:40:41.784Z,74
2019-04-26T07:43:37.054Z,73.7
2019-04-26T07:46:32.256Z,73.7
2019-04-26T07:49:27.478Z,74.2
2019-04-26T07:52:22.719Z,74.1
2019-04-26T07:55:17.950Z,73.8
2019-04-26T07:58:13.638Z,74.2
2019-04-26T08:01:08.373Z,73.9
2019-04-26T08:04:05.437Z,74.4
2019-04-26T08:06:58.757Z,74.1
2019-04-26T08:10:00.543Z,73.9
2019-04-26T08:12:49.196Z,73.9
2019-04-26T08:15:44.431Z,74.1
2019-04-26T08:18:39.593Z,79.2
2019-04-26T08:21:34.718Z,80.7
2019-04-26T08:24:29.858Z,79.1
2019-04-26T08:27:24.932Z,77.5
2019-04-26T08:30:23.178Z,75.8
2019-04-26T08:33:16.496Z,75.5
2019-04-26T08:36:11.050Z,75.4
2019-04-26T08:39:06.985Z,74.9
2019-04-26T08:42:00.520Z,74.1
2019-04-26T08:44:55.665Z,74.4
2019-04-26T08:47:53.998Z,74.1
2019-04-26T08:50:47.169Z,74.1
2019-04-26T08:53:41.178Z,73.6
2019-04-26T08:56:36.347Z,73
2019-04-26T08:59:31.546Z,74
2019-04-26T09:02:26.760Z,73.7
2019-04-26T09:05:21.953Z,73.2
2019-04-26T09:08:17.157Z,73.1
2019-04-26T09:11:34.039Z,72.5
2019-04-26T09:14:07.618Z,71.9
2019-04-26T09:17:02.871Z,71.6
2019-04-26T09:19:58.784Z,72
2019-04-26T09:23:05.017Z,72.5
2019-04-26T09:25:59.673Z,72.3
2019-04-26T09:28:43.815Z,71.9
2019-04-26T09:31:39.074Z,71
2019-04-26T09:34:34.329Z,71
2019-04-26T09:37:29.524Z,71.5
2019-04-26T09:40:24.846Z,70.6
2019-04-26T09:43:19.984Z,70.8
2019-04-26T09:46:15.304Z,70.7
2019-04-26T09:49:10.579Z,70.6
2019-04-26T09:52:05.817Z,70.7
2019-04-26T09:55:01.043Z,71.1
2019-04-26T09:57:58.293Z,70.4
2019-04-26T10:00:51.571Z,69.9
2019-04-26T10:03:46.796Z,69.5
2019-04-26T10:06:42.061Z,70
2019-04-26T10:09:37.308Z,69.7
2019-04-26T10:12:32.603Z,69.3
2019-04-26T10:15:28.710Z,68.6
2019-04-26T10:18:26.095Z,68.9
2019-04-26T10:21:18.348Z,68.6
2019-04-26T10:24:13.604Z,69
2019-04-26T10:27:08.876Z,68.7
2019-04-26T10:30:09.785Z,68.4
2019-04-26T10:33:03.652Z,68.8
2019-04-26T10:35:58.014Z,68.3
2019-04-26T10:38:49.900Z,68.6
2019-04-26T10:41:45.244Z,69.3
2019-04-26T10:44:41.607Z,69.6
2019-04-26T10:47:40.033Z,68.8
2019-04-26T10:50:34.598Z,69.4
2019-04-26T10:53:32.129Z,69.1
2019-04-26T10:56:25.467Z,69.3
2019-04-26T10:59:16.645Z,69.1
2019-04-26T11:02:11.866Z,69
2019-04-26T11:05:07.102Z,69.2
2019-04-26T11:08:02.344Z,70.2
2019-04-26T11:10:57.577Z,73
2019-04-26T11:13:52.774Z,74.2
2019-04-26T11:16:47.990Z,76
2019-04-26T11:19:44.796Z,75.9
2019-04-26T11:22:39.637Z,75.6
2019-04-26T11:25:33.672Z,77.3
2019-04-26T11:28:28.886Z,78.1
2019-04-26T11:31:29.425Z,77.3
2019-04-26T11:34:25.161Z,78.7
2019-04-26T11:37:19.570Z,77.7
2019-04-26T11:40:16.023Z,78.7
2019-04-26T11:43:04.830Z,79.7
2019-04-26T11:46:05.655Z,80.7
2019-04-26T11:49:07.049Z,82
2019-04-26T11:51:50.211Z,81.2
2019-04-26T11:54:45.325Z,81.6
2019-04-26T11:57:47.430Z,82.3
2019-04-26T12:00:35.522Z,81.9
2019-04-26T12:03:30.580Z,82.9
2019-04-26T12:06:25.662Z,83.2
2019-04-26T12:09:20.735Z,82.8
2019-04-26T12:12:15.844Z,83.7
2019-04-26T12:15:10.963Z,83.6
2019-04-26T12:18:11.402Z,84.1
2019-04-26T12:21:02.501Z,84.2
2019-04-26T12:23:56.886Z,84
2019-04-26T12:26:57.474Z,83.4
2019-04-26T12:29:49.958Z,82.7
2019-04-26T12:32:41.718Z,83.2
2019-04-26T12:35:36.859Z,83.5
2019-04-26T12:38:31.995Z,84
2019-04-26T12:41:41.055Z,85.2
2019-04-26T12:44:22.287Z,83.8
2019-04-26T12:47:17.403Z,83.2
2019-04-26T12:50:12.554Z,82.9
2019-04-26T12:53:07.703Z,83.1
2019-04-26T12:56:02.871Z,82.9
2019-04-26T12:58:58.010Z,82.9
2019-04-26T13:02:06.398Z,82.9
2019-04-26T13:04:48.266Z,83.2
2019-04-26T13:07:44.858Z,84.7
2019-04-26T13:10:38.464Z,84.3
2019-04-26T13:13:33.560Z,83.6
2019-04-26T13:16:28.663Z,84.9
2019-04-26T13:19:23.723Z,83.3
2019-04-26T13:22:18.755Z,84.5
2019-04-26T13:25:39.939Z,83.9
2019-04-26T13:28:08.876Z,84.3
2019-04-26T13:31:03.951Z,84.1
2019-04-26T13:34:04.804Z,82.9
2019-04-26T13:36:54.123Z,82.5
2019-04-26T13:39:56.677Z,83.7
2019-04-26T13:42:52.475Z,82.5
2019-04-26T13:45:39.180Z,82.9
2019-04-26T13:48:34.159Z,83.6
2019-04-26T13:51:29.165Z,83.8
2019-04-26T13:54:24.136Z,83.9
2019-04-26T13:57:19.091Z,84.8
2019-04-26T14:00:14.033Z,84.2
2019-04-26T14:03:08.983Z,83.6
2019-04-26T14:06:03.958Z,84.6
2019-04-26T14:09:03.273Z,84
2019-04-26T14:11:53.890Z,84.1
2019-04-26T14:14:48.839Z,85.4
2019-04-26T14:17:43.777Z,85.8
2019-04-26T14:20:38.778Z,85.9
2019-04-26T14:23:34.122Z,86
2019-04-26T14:26:28.742Z,85
2019-04-26T14:29:23.738Z,84.5
2019-04-26T14:32:24.254Z,85.6
2019-04-26T14:35:17.617Z,85.4
2019-04-26T14:38:08.725Z,86.5
2019-04-26T14:41:05.418Z,85.5
2019-04-26T14:43:58.732Z,85.8
2019-04-26T14:46:58.113Z,87.3
2019-04-26T14:49:48.736Z,86.8
2019-04-26T14:52:43.743Z,87.2
2019-04-26T14:55:38.760Z,87.5
2019-04-26T14:58:34.204Z,86.2
2019-04-26T15:01:35.374Z,86.2
2019-04-26T15:04:29.163Z,86.8
2019-04-26T15:07:18.830Z,87.4
2019-04-26T15:10:14.479Z,87.7
2019-04-26T15:13:23.467Z,86.4
2019-04-26T15:16:14.447Z,86.9
2019-04-26T15:18:58.960Z,87.6
2019-04-26T15:21:53.989Z,86.7
2019-04-26T15:24:49.058Z,85.4
2019-04-26T15:27:44.702Z,85.1
2019-04-26T15:30:47.197Z,84.4
2019-04-26T15:33:36.434Z,85.9
2019-04-26T15:36:29.222Z,84.9
2019-04-26T15:39:24.323Z,84.7
2019-04-26T15:42:19.431Z,85.6
2019-04-26T15:45:14.534Z,86.4
2019-04-26T15:48:09.629Z,84.9
2019-04-26T15:51:04.760Z,84.6
2019-04-26T15:53:59.884Z,85.1
2019-04-26T15:56:55.784Z,84.6
2019-04-26T15:59:50.183Z,84
2019-04-26T16:02:45.335Z,85
2019-04-26T16:05:40.435Z,84.9
2019-04-26T16:08:44.086Z,85.7
2019-04-26T16:11:30.690Z,85.4
2019-04-26T16:14:37.143Z,85.5
2019-04-26T16:17:20.909Z,85.6
2019-04-26T16:20:16.035Z,85.6
2019-04-26T16:23:13.915Z,85.7
2019-04-26T16:26:15.395Z,86.4
2019-04-26T16:29:01.385Z,86.6
2019-04-26T16:31:56.521Z,87
2019-04-26T16:34:53.457Z,86.9
2019-04-26T16:37:46.738Z,86.7
2019-04-26T16:40:55.126Z,86.7
2019-04-26T16:43:54.427Z,86.8
2019-04-26T16:46:33.835Z,86.7
2019-04-26T16:49:27.410Z,87
2019-04-26T16:52:24.363Z,86
2019-04-26T16:57:21.056Z,85.7
2019-04-26T16:58:13.250Z,85.6
2019-04-26T17:01:15.384Z,86.1
2019-04-26T17:04:14.087Z,87.3
2019-04-26T17:07:05.254Z,86.9
2019-04-26T17:10:00.126Z,86.2
2019-04-26T17:12:54.516Z,86.9
2019-04-26T17:15:43.421Z,86.5
2019-04-26T17:18:38.189Z,86.7
2019-04-26T17:21:35.190Z,86.9
2019-04-26T17:24:28.341Z,86.4
2019-04-26T17:27:23.423Z,86.4
2019-04-26T17:30:18.502Z,86.2
2019-04-26T17:33:13.679Z,86.5
2019-04-26T17:36:17.257Z,86.4
2019-04-26T17:39:03.692Z,86.5
2019-04-26T17:41:58.765Z,86
2019-04-26T17:45:05.809Z,85.8
2019-04-26T17:47:48.916Z,85.8
2019-04-26T17:50:43.959Z,85.5
2019-04-26T17:53:47.945Z,86.5
2019-04-26T17:56:42.218Z,87.1
2019-04-26T17:59:40.991Z,87.8
2019-04-26T18:02:48.195Z,87.9
2019-04-26T18:05:41.877Z,88.1
2019-04-26T18:08:52.007Z,87.8
2019-04-26T18:11:24.570Z,87.2
2019-04-26T18:14:20.535Z,86
2019-04-26T18:17:04.665Z,85.8
2019-04-26T18:19:54.316Z,85.7
2019-04-26T18:22:49.370Z,86.7
2019-04-26T18:25:46.644Z,86.3
2019-04-26T18:28:39.682Z,85.5
2019-04-26T18:31:34.540Z,86.1
2019-04-26T18:34:40.391Z,85.4
2019-04-26T18:37:27.889Z,84.5
2019-04-26T18:40:23.259Z,84.6
2019-04-26T18:43:24.644Z,85
2019-04-26T18:46:12.888Z,85.4
2019-04-26T18:49:11.267Z,85.4
2019-04-26T18:51:59.948Z,85.1
2019-04-26T18:55:05.731Z,84.8
2019-04-26T18:58:05.694Z,85.1
2019-04-26T19:00:45.088Z,85.3
2019-04-26T19:03:40.122Z,84.8
2019-04-26T19:06:43.441Z,85.4
2019-04-26T19:09:59.185Z,85.1
2019-04-26T19:12:27.586Z,85.4
2019-04-26T19:15:22.073Z,85
2019-04-26T19:18:18.731Z,85.5
2019-04-26T19:21:12.089Z,85.3
2019-04-26T19:24:21.000Z,85.6
2019-04-26T19:27:04.098Z,85.9
2019-04-26T19:29:55.481Z,86.1
2019-04-26T19:32:53.982Z,86.5
2019-04-26T19:35:47.987Z,86
2019-04-26T19:38:52.889Z,85.5
2019-04-26T19:41:35.727Z,85.9
2019-04-26T19:44:32.079Z,85.6
2019-04-26T19:47:25.985Z,86.2
2019-04-26T19:50:22.407Z,86.5
2019-04-26T19:53:24.773Z,86.5
2019-04-26T19:56:10.929Z,86.9
2019-04-26T19:59:05.748Z,85.7
2019-04-26T20:02:02.106Z,85.7
2019-04-26T20:04:55.691Z,86
2019-04-26T20:07:52.416Z,86.3
2019-04-26T20:10:46.418Z,86.9
2019-04-26T20:13:42.812Z,87.1
2019-04-26T20:16:43.395Z,87.3
2019-04-26T20:19:37.841Z,86.9
2019-04-26T20:22:32.155Z,87
2019-04-26T20:25:26.355Z,87
2019-04-26T20:28:22.749Z,87.7
2019-04-26T20:31:12.181Z,87.9
2019-04-26T20:34:15.289Z,88
2019-04-26T20:37:03.635Z,88.1
2019-04-26T20:40:25.342Z,87.4
2019-04-26T20:43:05.677Z,87.8
2019-04-26T20:46:15.717Z,87
2019-04-26T20:48:40.169Z,87.2
2019-04-26T20:51:35.117Z,86.7
2019-04-26T20:54:31.679Z,86.9
2019-04-26T20:57:34.517Z,87.4
2019-04-26T21:00:20.077Z,88.1
2019-04-26T21:03:28.047Z,87.4
2019-04-26T21:06:11.891Z,86.9
2019-04-26T21:09:09.353Z,87.1
2019-04-26T21:12:02.839Z,86.2
2019-04-26T21:15:02.534Z,85.8
2019-04-26T21:17:49.732Z,85.3
2019-04-26T21:20:44.685Z,86.1
2019-04-26T21:23:44.086Z,86.2
2019-04-26T21:26:34.598Z,86.6
2019-04-26T21:29:29.564Z,86.6
2019-04-26T21:32:32.776Z,87.2
2019-04-26T21:35:28.343Z,87.5
2019-04-26T21:38:14.423Z,87.1
2019-04-26T21:41:14.393Z,88.2
2019-04-26T21:44:15.779Z,88.5
2019-04-26T21:46:59.532Z,88.5
2019-04-26T21:50:00.972Z,88.9
2019-04-26T21:52:49.024Z,88.7
2019-04-26T21:55:44.004Z,88.5
2019-04-26T21:58:38.822Z,88.4
2019-04-26T22:01:33.759Z,88.3
2019-04-26T22:04:37.740Z,88.4
2019-04-26T22:07:24.720Z,88.3
2019-04-26T22:10:18.522Z,88.4
2019-04-26T22:13:14.447Z,88.6
2019-04-26T22:16:38.139Z,88.8
2019-04-26T22:19:04.377Z,89.1
2019-04-26T22:22:07.026Z,89.2
2019-04-26T22:24:55.751Z,88.8
2019-04-26T22:27:48.011Z,88.9
2019-04-26T22:30:42.893Z,88.4
2019-04-26T22:33:37.792Z,88.3
2019-04-26T22:36:36.063Z,88.4
2019-04-26T22:39:27.611Z,87.9
2019-04-26T22:42:24.383Z,87.5
2019-04-26T22:45:17.411Z,87.2
2019-04-26T22:48:25.723Z,87.1
2019-04-26T22:51:07.204Z,86.9
2019-04-26T22:54:06.548Z,86.9
2019-04-26T22:56:57.015Z,86.7
2019-04-26T22:59:53.879Z,86.8
2019-04-26T23:02:46.875Z,86.9
2019-04-26T23:05:43.676Z,86.6
2019-04-26T23:08:38.713Z,87.4
2019-04-26T23:11:33.230Z,87.5
2019-04-26T23:14:26.469Z,87.2
2019-04-26T23:17:23.224Z,87.7
2019-04-26T23:20:16.297Z,87.8
2019-04-26T23:23:11.219Z,87.5
2019-04-26T23:26:07.810Z,87.4
2019-04-26T23:29:01.074Z,87.1
2019-04-26T23:31:56.091Z,87.4
2019-04-26T23:34:50.937Z,87.1
2019-04-26T23:37:45.836Z,87.4
2019-04-26T23:40:40.761Z,87.9
2019-04-26T23:43:35.672Z,86.8
2019-04-26T23:46:30.581Z,86.4
2019-04-26T23:49:25.841Z,86.5
2019-04-26T23:52:20.356Z,86.4
2019-04-26T23:55:15.222Z,86.9
2019-04-26T23:58:14.024Z,86.5
